sensor_id;sensor_type;location;lat;lon;timestamp;P1;durP1;ratioP1;P2;durP2;ratioP2
11100;SDS011;5604;50.722;7.078;2022-10-22T00:01:11;915.60;;;842.70;;
11100;SDS011;5604;50.722;7.078;2022-10-22T00:03:39;927.50;;;853.27;;
11100;SDS011;5604;50.722;7.078;2022-10-22T00:06:07;896.43;;;829.57;;
11100;SDS011;5604;50.722;7.078;2022-10-22T00:08:37;914.37;;;842.97;;
11100;SDS011;5604;50.722;7.078;2022-10-22T00:11:09;892.10;;;823.97;;
11100;SDS011;5604;50.722;7.078;2022-10-22T00:13:38;877.23;;;812.00;;
11100;SDS011;5604;50.722;7.078;2022-10-22T00:16:06;879.60;;;812.83;;
11100;SDS011;5604;50.722;7.078;2022-10-22T00:18:35;864.80;;;799.43;;
11100;SDS011;5604;50.722;7.078;2022-10-22T00:21:03;872.90;;;805.67;;
11100;SDS011;5604;50.722;7.078;2022-10-22T00:23:31;898.70;;;829.87;;
11100;SDS011;5604;50.722;7.078;2022-10-22T00:26:01;899.60;;;829.03;;
11100;SDS011;5604;50.722;7.078;2022-10-22T00:28:29;909.97;;;838.63;;
11100;SDS011;5604;50.722;7.078;2022-10-22T00:30:58;915.60;;;842.97;;
11100;SDS011;5604;50.722;7.078;2022-10-22T00:33:27;853.83;;;789.43;;
11100;SDS011;5604;50.722;7.078;2022-10-22T00:35:55;874.77;;;808.30;;
11100;SDS011;5604;50.722;7.078;2022-10-22T00:38:23;887.60;;;817.73;;
11100;SDS011;5604;50.722;7.078;2022-10-22T00:40:51;893.50;;;824.27;;
11100;SDS011;5604;50.722;7.078;2022-10-22T00:43:21;888.70;;;819.97;;
11100;SDS011;5604;50.722;7.078;2022-10-22T00:45:49;874.83;;;807.17;;
11100;SDS011;5604;50.722;7.078;2022-10-22T00:48:18;883.27;;;814.87;;
11100;SDS011;5604;50.722;7.078;2022-10-22T00:50:47;867.03;;;800.03;;
11100;SDS011;5604;50.722;7.078;2022-10-22T00:53:17;850.37;;;785.47;;
11100;SDS011;5604;50.722;7.078;2022-10-22T00:55:48;861.10;;;795.50;;
11100;SDS011;5604;50.722;7.078;2022-10-22T00:58:19;853.20;;;789.47;;
11100;SDS011;5604;50.722;7.078;2022-10-22T01:00:49;886.37;;;816.73;;
11100;SDS011;5604;50.722;7.078;2022-10-22T01:03:18;872.40;;;804.67;;
11100;SDS011;5604;50.722;7.078;2022-10-22T01:05:48;878.20;;;811.80;;
11100;SDS011;5604;50.722;7.078;2022-10-22T01:08:21;883.43;;;815.93;;
11100;SDS011;5604;50.722;7.078;2022-10-22T01:10:55;885.03;;;816.43;;
11100;SDS011;5604;50.722;7.078;2022-10-22T01:13:33;864.00;;;797.07;;
11100;SDS011;5604;50.722;7.078;2022-10-22T01:16:08;890.97;;;822.40;;
11100;SDS011;5604;50.722;7.078;2022-10-22T01:18:41;895.50;;;826.13;;
11100;SDS011;5604;50.722;7.078;2022-10-22T01:21:18;886.97;;;819.93;;
11100;SDS011;5604;50.722;7.078;2022-10-22T01:24:06;885.57;;;817.57;;
11100;SDS011;5604;50.722;7.078;2022-10-22T01:26:42;888.43;;;820.27;;
11100;SDS011;5604;50.722;7.078;2022-10-22T01:29:23;928.00;;;853.80;;
11100;SDS011;5604;50.722;7.078;2022-10-22T01:31:56;887.87;;;819.53;;
11100;SDS011;5604;50.722;7.078;2022-10-22T01:34:26;891.87;;;822.80;;
11100;SDS011;5604;50.722;7.078;2022-10-22T01:36:54;850.33;;;786.77;;
11100;SDS011;5604;50.722;7.078;2022-10-22T01:39:23;844.23;;;780.87;;
11100;SDS011;5604;50.722;7.078;2022-10-22T01:41:53;867.53;;;801.27;;
11100;SDS011;5604;50.722;7.078;2022-10-22T01:44:23;867.30;;;800.57;;
11100;SDS011;5604;50.722;7.078;2022-10-22T01:46:55;882.73;;;815.73;;
11100;SDS011;5604;50.722;7.078;2022-10-22T01:49:32;887.63;;;818.93;;
11100;SDS011;5604;50.722;7.078;2022-10-22T01:52:09;863.93;;;799.87;;
11100;SDS011;5604;50.722;7.078;2022-10-22T01:54:44;882.43;;;814.67;;
11100;SDS011;5604;50.722;7.078;2022-10-22T01:57:14;871.03;;;805.20;;
11100;SDS011;5604;50.722;7.078;2022-10-22T01:59:49;836.07;;;774.20;;
11100;SDS011;5604;50.722;7.078;2022-10-22T02:02:24;874.70;;;807.20;;
11100;SDS011;5604;50.722;7.078;2022-10-22T02:08:31;902.67;;;833.83;;
11100;SDS011;5604;50.722;7.078;2022-10-22T02:11:04;903.90;;;833.10;;
11100;SDS011;5604;50.722;7.078;2022-10-22T02:13:34;862.43;;;795.50;;
11100;SDS011;5604;50.722;7.078;2022-10-22T02:16:06;868.47;;;804.10;;
11100;SDS011;5604;50.722;7.078;2022-10-22T02:18:35;870.30;;;803.17;;
11100;SDS011;5604;50.722;7.078;2022-10-22T02:21:05;886.87;;;820.63;;
11100;SDS011;5604;50.722;7.078;2022-10-22T02:23:33;902.17;;;832.37;;
11100;SDS011;5604;50.722;7.078;2022-10-22T02:26:02;870.33;;;803.00;;
11100;SDS011;5604;50.722;7.078;2022-10-22T02:28:35;890.73;;;823.13;;
11100;SDS011;5604;50.722;7.078;2022-10-22T02:31:07;879.63;;;811.77;;
11100;SDS011;5604;50.722;7.078;2022-10-22T02:33:40;883.67;;;816.03;;
11100;SDS011;5604;50.722;7.078;2022-10-22T02:36:10;879.20;;;810.23;;
11100;SDS011;5604;50.722;7.078;2022-10-22T02:38:38;859.23;;;794.70;;
11100;SDS011;5604;50.722;7.078;2022-10-22T02:41:07;891.97;;;823.20;;
11100;SDS011;5604;50.722;7.078;2022-10-22T02:43:39;863.80;;;797.07;;
11100;SDS011;5604;50.722;7.078;2022-10-22T02:46:09;858.23;;;794.53;;
11100;SDS011;5604;50.722;7.078;2022-10-22T02:48:37;877.20;;;809.03;;
11100;SDS011;5604;50.722;7.078;2022-10-22T02:51:05;857.13;;;791.07;;
11100;SDS011;5604;50.722;7.078;2022-10-22T02:53:34;868.90;;;803.00;;
11100;SDS011;5604;50.722;7.078;2022-10-22T02:56:02;862.30;;;796.43;;
11100;SDS011;5604;50.722;7.078;2022-10-22T02:58:30;860.10;;;794.53;;
11100;SDS011;5604;50.722;7.078;2022-10-22T03:00:58;860.53;;;795.43;;
11100;SDS011;5604;50.722;7.078;2022-10-22T03:03:28;860.77;;;794.73;;
11100;SDS011;5604;50.722;7.078;2022-10-22T03:05:56;869.77;;;804.87;;
11100;SDS011;5604;50.722;7.078;2022-10-22T03:08:24;867.70;;;800.50;;
11100;SDS011;5604;50.722;7.078;2022-10-22T03:10:52;869.73;;;801.90;;
11100;SDS011;5604;50.722;7.078;2022-10-22T03:13:20;886.20;;;816.93;;
11100;SDS011;5604;50.722;7.078;2022-10-22T03:15:49;884.27;;;816.27;;
11100;SDS011;5604;50.722;7.078;2022-10-22T03:18:17;864.23;;;798.57;;
11100;SDS011;5604;50.722;7.078;2022-10-22T03:20:46;882.00;;;814.10;;
11100;SDS011;5604;50.722;7.078;2022-10-22T03:23:16;902.93;;;834.20;;
11100;SDS011;5604;50.722;7.078;2022-10-22T03:25:45;867.30;;;800.20;;
11100;SDS011;5604;50.722;7.078;2022-10-22T03:28:15;880.20;;;811.00;;
11100;SDS011;5604;50.722;7.078;2022-10-22T03:30:44;897.27;;;828.13;;
11100;SDS011;5604;50.722;7.078;2022-10-22T03:33:12;824.43;;;762.53;;
11100;SDS011;5604;50.722;7.078;2022-10-22T03:35:41;863.10;;;797.50;;
11100;SDS011;5604;50.722;7.078;2022-10-22T03:38:12;866.43;;;800.13;;
11100;SDS011;5604;50.722;7.078;2022-10-22T03:40:41;874.70;;;806.63;;
11100;SDS011;5604;50.722;7.078;2022-10-22T03:43:09;886.33;;;817.47;;
11100;SDS011;5604;50.722;7.078;2022-10-22T03:45:38;890.67;;;821.40;;
11100;SDS011;5604;50.722;7.078;2022-10-22T03:48:06;904.07;;;832.07;;
11100;SDS011;5604;50.722;7.078;2022-10-22T03:50:34;890.77;;;821.73;;
11100;SDS011;5604;50.722;7.078;2022-10-22T03:53:02;928.53;;;854.53;;
11100;SDS011;5604;50.722;7.078;2022-10-22T03:55:34;927.33;;;854.13;;
11100;SDS011;5604;50.722;7.078;2022-10-22T03:58:03;882.93;;;816.93;;
11100;SDS011;5604;50.722;7.078;2022-10-22T04:00:31;924.63;;;852.07;;
11100;SDS011;5604;50.722;7.078;2022-10-22T04:03:00;876.13;;;808.87;;
11100;SDS011;5604;50.722;7.078;2022-10-22T04:05:28;916.50;;;847.37;;
11100;SDS011;5604;50.722;7.078;2022-10-22T04:08:01;900.67;;;831.73;;
11100;SDS011;5604;50.722;7.078;2022-10-22T04:10:29;894.07;;;824.03;;
11100;SDS011;5604;50.722;7.078;2022-10-22T04:12:58;924.10;;;851.40;;
11100;SDS011;5604;50.722;7.078;2022-10-22T04:15:26;913.27;;;843.07;;
11100;SDS011;5604;50.722;7.078;2022-10-22T04:17:55;899.23;;;829.90;;
11100;SDS011;5604;50.722;7.078;2022-10-22T04:20:22;915.67;;;842.83;;
11100;SDS011;5604;50.722;7.078;2022-10-22T04:22:50;905.43;;;835.50;;
11100;SDS011;5604;50.722;7.078;2022-10-22T04:25:19;920.10;;;849.43;;
11100;SDS011;5604;50.722;7.078;2022-10-22T04:27:47;900.93;;;830.33;;
11100;SDS011;5604;50.722;7.078;2022-10-22T04:30:16;904.83;;;834.77;;
11100;SDS011;5604;50.722;7.078;2022-10-22T04:32:44;918.80;;;845.77;;
11100;SDS011;5604;50.722;7.078;2022-10-22T04:35:12;914.57;;;841.57;;
11100;SDS011;5604;50.722;7.078;2022-10-22T04:37:41;918.00;;;846.17;;
11100;SDS011;5604;50.722;7.078;2022-10-22T04:40:09;902.20;;;832.20;;
11100;SDS011;5604;50.722;7.078;2022-10-22T04:42:38;907.60;;;836.07;;
11100;SDS011;5604;50.722;7.078;2022-10-22T04:45:07;903.23;;;831.80;;
11100;SDS011;5604;50.722;7.078;2022-10-22T04:47:37;891.70;;;822.67;;
11100;SDS011;5604;50.722;7.078;2022-10-22T04:50:06;914.93;;;843.57;;
11100;SDS011;5604;50.722;7.078;2022-10-22T04:52:34;908.40;;;835.93;;
11100;SDS011;5604;50.722;7.078;2022-10-22T04:55:03;908.10;;;837.07;;
11100;SDS011;5604;50.722;7.078;2022-10-22T04:57:31;921.67;;;848.87;;
11100;SDS011;5604;50.722;7.078;2022-10-22T04:59:59;883.27;;;814.80;;
11100;SDS011;5604;50.722;7.078;2022-10-22T05:02:27;891.97;;;821.33;;
11100;SDS011;5604;50.722;7.078;2022-10-22T05:04:57;900.30;;;830.77;;
11100;SDS011;5604;50.722;7.078;2022-10-22T05:07:25;908.10;;;838.50;;
11100;SDS011;5604;50.722;7.078;2022-10-22T05:09:53;884.17;;;817.93;;
11100;SDS011;5604;50.722;7.078;2022-10-22T05:12:21;915.63;;;844.63;;
11100;SDS011;5604;50.722;7.078;2022-10-22T05:14:49;914.97;;;844.23;;
11100;SDS011;5604;50.722;7.078;2022-10-22T05:17:17;913.77;;;843.10;;
11100;SDS011;5604;50.722;7.078;2022-10-22T05:19:45;907.40;;;838.87;;
11100;SDS011;5604;50.722;7.078;2022-10-22T05:22:15;915.13;;;845.73;;
11100;SDS011;5604;50.722;7.078;2022-10-22T05:24:43;897.03;;;830.00;;
11100;SDS011;5604;50.722;7.078;2022-10-22T05:27:11;905.03;;;835.70;;
11100;SDS011;5604;50.722;7.078;2022-10-22T05:29:39;890.63;;;825.40;;
11100;SDS011;5604;50.722;7.078;2022-10-22T05:32:07;905.20;;;836.73;;
11100;SDS011;5604;50.722;7.078;2022-10-22T05:34:35;900.03;;;830.83;;
11100;SDS011;5604;50.722;7.078;2022-10-22T05:37:03;916.60;;;846.63;;
11100;SDS011;5604;50.722;7.078;2022-10-22T05:39:32;895.53;;;828.40;;
11100;SDS011;5604;50.722;7.078;2022-10-22T05:42:02;902.37;;;834.17;;
11100;SDS011;5604;50.722;7.078;2022-10-22T05:44:30;905.80;;;835.47;;
11100;SDS011;5604;50.722;7.078;2022-10-22T05:46:58;891.63;;;826.47;;
11100;SDS011;5604;50.722;7.078;2022-10-22T05:49:26;899.73;;;833.30;;
11100;SDS011;5604;50.722;7.078;2022-10-22T05:51:54;901.50;;;834.80;;
11100;SDS011;5604;50.722;7.078;2022-10-22T05:54:22;888.37;;;822.93;;
11100;SDS011;5604;50.722;7.078;2022-10-22T05:56:52;899.23;;;832.80;;
11100;SDS011;5604;50.722;7.078;2022-10-22T05:59:21;891.60;;;827.80;;
11100;SDS011;5604;50.722;7.078;2022-10-22T06:01:49;883.97;;;819.80;;
11100;SDS011;5604;50.722;7.078;2022-10-22T06:04:17;854.50;;;795.27;;
11100;SDS011;5604;50.722;7.078;2022-10-22T06:06:45;870.00;;;808.57;;
11100;SDS011;5604;50.722;7.078;2022-10-22T06:09:16;880.00;;;817.70;;
11100;SDS011;5604;50.722;7.078;2022-10-22T06:11:46;878.10;;;815.93;;
11100;SDS011;5604;50.722;7.078;2022-10-22T06:14:16;873.00;;;809.33;;
11100;SDS011;5604;50.722;7.078;2022-10-22T06:16:44;855.17;;;795.77;;
11100;SDS011;5604;50.722;7.078;2022-10-22T06:19:13;888.83;;;824.23;;
11100;SDS011;5604;50.722;7.078;2022-10-22T06:21:42;890.23;;;826.27;;
11100;SDS011;5604;50.722;7.078;2022-10-22T06:24:11;884.37;;;819.90;;
11100;SDS011;5604;50.722;7.078;2022-10-22T06:26:39;895.50;;;830.37;;
11100;SDS011;5604;50.722;7.078;2022-10-22T06:29:07;887.87;;;819.27;;
11100;SDS011;5604;50.722;7.078;2022-10-22T06:31:37;896.37;;;830.07;;
11100;SDS011;5604;50.722;7.078;2022-10-22T06:34:05;869.93;;;805.53;;
11100;SDS011;5604;50.722;7.078;2022-10-22T06:36:34;881.50;;;816.10;;
11100;SDS011;5604;50.722;7.078;2022-10-22T06:39:03;875.57;;;809.87;;
11100;SDS011;5604;50.722;7.078;2022-10-22T06:41:31;903.67;;;834.07;;
11100;SDS011;5604;50.722;7.078;2022-10-22T06:43:59;899.73;;;828.17;;
11100;SDS011;5604;50.722;7.078;2022-10-22T06:46:28;917.03;;;845.23;;
11100;SDS011;5604;50.722;7.078;2022-10-22T06:48:59;924.93;;;850.80;;
11100;SDS011;5604;50.722;7.078;2022-10-22T06:51:28;907.53;;;834.67;;
11100;SDS011;5604;50.722;7.078;2022-10-22T06:53:57;875.43;;;806.93;;
11100;SDS011;5604;50.722;7.078;2022-10-22T06:56:25;892.07;;;822.07;;
11100;SDS011;5604;50.722;7.078;2022-10-22T06:58:55;887.60;;;819.77;;
11100;SDS011;5604;50.722;7.078;2022-10-22T07:01:25;885.07;;;815.97;;
11100;SDS011;5604;50.722;7.078;2022-10-22T07:03:54;904.43;;;834.93;;
11100;SDS011;5604;50.722;7.078;2022-10-22T07:06:24;913.10;;;841.27;;
11100;SDS011;5604;50.722;7.078;2022-10-22T07:08:53;898.60;;;830.30;;
11100;SDS011;5604;50.722;7.078;2022-10-22T07:11:22;900.77;;;832.20;;
11100;SDS011;5604;50.722;7.078;2022-10-22T07:13:52;888.80;;;820.33;;
11100;SDS011;5604;50.722;7.078;2022-10-22T07:16:21;897.13;;;828.77;;
11100;SDS011;5604;50.722;7.078;2022-10-22T07:18:56;886.10;;;819.40;;
11100;SDS011;5604;50.722;7.078;2022-10-22T07:21:26;910.37;;;841.10;;
11100;SDS011;5604;50.722;7.078;2022-10-22T07:23:54;898.13;;;829.53;;
11100;SDS011;5604;50.722;7.078;2022-10-22T07:26:22;889.20;;;821.07;;
11100;SDS011;5604;50.722;7.078;2022-10-22T07:28:52;904.83;;;835.10;;
11100;SDS011;5604;50.722;7.078;2022-10-22T07:31:20;881.67;;;813.50;;
11100;SDS011;5604;50.722;7.078;2022-10-22T07:33:48;892.20;;;820.93;;
11100;SDS011;5604;50.722;7.078;2022-10-22T07:36:16;885.83;;;818.23;;
11100;SDS011;5604;50.722;7.078;2022-10-22T07:38:47;851.60;;;786.10;;
11100;SDS011;5604;50.722;7.078;2022-10-22T07:41:16;847.80;;;782.77;;
11100;SDS011;5604;50.722;7.078;2022-10-22T07:43:44;867.17;;;799.20;;
11100;SDS011;5604;50.722;7.078;2022-10-22T07:46:12;824.73;;;761.17;;
11100;SDS011;5604;50.722;7.078;2022-10-22T07:48:40;827.40;;;762.83;;
11100;SDS011;5604;50.722;7.078;2022-10-22T07:51:08;813.60;;;751.57;;
11100;SDS011;5604;50.722;7.078;2022-10-22T07:53:36;799.30;;;742.40;;
11100;SDS011;5604;50.722;7.078;2022-10-22T07:56:06;736.60;;;687.90;;
11100;SDS011;5604;50.722;7.078;2022-10-22T07:58:34;782.13;;;727.50;;
11100;SDS011;5604;50.722;7.078;2022-10-22T08:01:02;805.77;;;750.57;;
11100;SDS011;5604;50.722;7.078;2022-10-22T08:03:32;847.53;;;789.43;;
11100;SDS011;5604;50.722;7.078;2022-10-22T08:06:00;866.80;;;805.00;;
11100;SDS011;5604;50.722;7.078;2022-10-22T08:08:28;885.47;;;824.97;;
11100;SDS011;5604;50.722;7.078;2022-10-22T08:10:57;875.77;;;814.07;;
11100;SDS011;5604;50.722;7.078;2022-10-22T08:13:28;920.23;;;851.37;;
11100;SDS011;5604;50.722;7.078;2022-10-22T08:15:57;935.50;;;861.97;;
11100;SDS011;5604;50.722;7.078;2022-10-22T08:18:26;942.93;;;867.83;;
11100;SDS011;5604;50.722;7.078;2022-10-22T08:20:54;890.23;;;819.93;;
11100;SDS011;5604;50.722;7.078;2022-10-22T08:23:22;817.73;;;752.90;;
11100;SDS011;5604;50.722;7.078;2022-10-22T08:25:54;678.33;;;629.17;;
11100;SDS011;5604;50.722;7.078;2022-10-22T08:28:22;544.07;;;509.23;;
11100;SDS011;5604;50.722;7.078;2022-10-22T08:30:52;545.37;;;512.80;;
11100;SDS011;5604;50.722;7.078;2022-10-22T08:33:20;505.43;;;477.83;;
11100;SDS011;5604;50.722;7.078;2022-10-22T08:35:49;495.27;;;469.37;;
11100;SDS011;5604;50.722;7.078;2022-10-22T08:38:18;573.93;;;541.73;;
11100;SDS011;5604;50.722;7.078;2022-10-22T08:40:47;595.73;;;562.40;;
11100;SDS011;5604;50.722;7.078;2022-10-22T08:43:22;588.20;;;555.13;;
11100;SDS011;5604;50.722;7.078;2022-10-22T08:46:01;578.07;;;545.70;;
11100;SDS011;5604;50.722;7.078;2022-10-22T08:48:37;594.13;;;560.93;;
11100;SDS011;5604;50.722;7.078;2022-10-22T08:51:10;614.30;;;579.17;;
11100;SDS011;5604;50.722;7.078;2022-10-22T08:53:40;601.93;;;567.97;;
11100;SDS011;5604;50.722;7.078;2022-10-22T08:56:18;590.87;;;558.50;;
11100;SDS011;5604;50.722;7.078;2022-10-22T08:58:49;630.80;;;594.50;;
11100;SDS011;5604;50.722;7.078;2022-10-22T09:01:22;596.37;;;563.40;;
11100;SDS011;5604;50.722;7.078;2022-10-22T09:04:03;587.23;;;555.20;;
11100;SDS011;5604;50.722;7.078;2022-10-22T09:06:34;621.03;;;586.07;;
11100;SDS011;5604;50.722;7.078;2022-10-22T09:09:04;627.00;;;590.90;;
11100;SDS011;5604;50.722;7.078;2022-10-22T09:11:44;648.90;;;610.97;;
11100;SDS011;5604;50.722;7.078;2022-10-22T09:14:20;633.03;;;597.03;;
11100;SDS011;5604;50.722;7.078;2022-10-22T09:17:09;655.63;;;617.80;;
11100;SDS011;5604;50.722;7.078;2022-10-22T09:19:43;655.33;;;617.47;;
11100;SDS011;5604;50.722;7.078;2022-10-22T09:22:30;652.20;;;615.03;;
11100;SDS011;5604;50.722;7.078;2022-10-22T09:25:21;690.30;;;649.10;;
11100;SDS011;5604;50.722;7.078;2022-10-22T09:27:51;676.17;;;636.10;;
11100;SDS011;5604;50.722;7.078;2022-10-22T09:30:39;654.17;;;616.00;;
11100;SDS011;5604;50.722;7.078;2022-10-22T09:33:31;676.03;;;635.57;;
11100;SDS011;5604;50.722;7.078;2022-10-22T09:36:02;617.70;;;582.70;;
11100;SDS011;5604;50.722;7.078;2022-10-22T09:38:35;643.47;;;605.90;;
11100;SDS011;5604;50.722;7.078;2022-10-22T09:41:15;659.20;;;621.30;;
11100;SDS011;5604;50.722;7.078;2022-10-22T09:44:02;681.30;;;641.07;;
11100;SDS011;5604;50.722;7.078;2022-10-22T09:46:48;676.07;;;635.77;;
11100;SDS011;5604;50.722;7.078;2022-10-22T09:49:22;625.60;;;589.50;;
11100;SDS011;5604;50.722;7.078;2022-10-22T09:52:00;606.67;;;574.00;;
11100;SDS011;5604;50.722;7.078;2022-10-22T09:54:38;595.43;;;561.87;;
11100;SDS011;5604;50.722;7.078;2022-10-22T09:57:30;627.03;;;592.50;;
11100;SDS011;5604;50.722;7.078;2022-10-22T10:00:07;625.90;;;590.80;;
11100;SDS011;5604;50.722;7.078;2022-10-22T10:02:38;606.97;;;574.30;;
11100;SDS011;5604;50.722;7.078;2022-10-22T10:05:16;611.30;;;577.50;;
11100;SDS011;5604;50.722;7.078;2022-10-22T10:07:46;641.37;;;605.33;;
11100;SDS011;5604;50.722;7.078;2022-10-22T10:10:16;625.43;;;591.53;;
11100;SDS011;5604;50.722;7.078;2022-10-22T10:12:47;614.93;;;582.30;;
11100;SDS011;5604;50.722;7.078;2022-10-22T10:15:19;605.40;;;573.53;;
11100;SDS011;5604;50.722;7.078;2022-10-22T10:18:11;596.90;;;564.17;;
11100;SDS011;5604;50.722;7.078;2022-10-22T10:20:47;619.03;;;585.93;;
11100;SDS011;5604;50.722;7.078;2022-10-22T10:23:22;619.47;;;585.63;;
11100;SDS011;5604;50.722;7.078;2022-10-22T10:25:56;610.27;;;577.93;;
11100;SDS011;5604;50.722;7.078;2022-10-22T10:28:32;621.37;;;588.87;;
11100;SDS011;5604;50.722;7.078;2022-10-22T10:31:09;620.53;;;588.20;;
11100;SDS011;5604;50.722;7.078;2022-10-22T10:33:46;615.83;;;583.90;;
11100;SDS011;5604;50.722;7.078;2022-10-22T10:36:21;624.80;;;590.23;;
11100;SDS011;5604;50.722;7.078;2022-10-22T10:38:56;640.73;;;605.93;;
11100;SDS011;5604;50.722;7.078;2022-10-22T10:41:28;636.80;;;602.67;;
11100;SDS011;5604;50.722;7.078;2022-10-22T10:44:16;627.43;;;592.53;;
11100;SDS011;5604;50.722;7.078;2022-10-22T10:46:54;650.50;;;615.23;;
11100;SDS011;5604;50.722;7.078;2022-10-22T10:49:29;656.10;;;620.03;;
11100;SDS011;5604;50.722;7.078;2022-10-22T10:52:02;638.80;;;603.50;;
11100;SDS011;5604;50.722;7.078;2022-10-22T10:54:39;660.20;;;623.67;;
11100;SDS011;5604;50.722;7.078;2022-10-22T10:57:12;674.33;;;637.00;;
11100;SDS011;5604;50.722;7.078;2022-10-22T10:59:50;682.97;;;644.00;;
11100;SDS011;5604;50.722;7.078;2022-10-22T11:05:27;713.83;;;673.00;;
11100;SDS011;5604;50.722;7.078;2022-10-22T11:08:00;680.90;;;641.90;;
11100;SDS011;5604;50.722;7.078;2022-10-22T11:10:32;682.23;;;643.47;;
11100;SDS011;5604;50.722;7.078;2022-10-22T11:13:05;712.80;;;671.50;;
11100;SDS011;5604;50.722;7.078;2022-10-22T11:15:38;660.37;;;623.90;;
11100;SDS011;5604;50.722;7.078;2022-10-22T11:18:11;676.97;;;639.47;;
11100;SDS011;5604;50.722;7.078;2022-10-22T11:20:43;691.83;;;652.57;;
11100;SDS011;5604;50.722;7.078;2022-10-22T11:23:29;686.27;;;646.67;;
11100;SDS011;5604;50.722;7.078;2022-10-22T11:26:01;688.93;;;650.07;;
11100;SDS011;5604;50.722;7.078;2022-10-22T11:28:32;683.70;;;645.03;;
11100;SDS011;5604;50.722;7.078;2022-10-22T11:31:03;667.10;;;629.63;;
11100;SDS011;5604;50.722;7.078;2022-10-22T11:33:32;675.90;;;637.73;;
11100;SDS011;5604;50.722;7.078;2022-10-22T11:36:05;672.97;;;635.30;;
11100;SDS011;5604;50.722;7.078;2022-10-22T11:38:35;680.27;;;642.43;;
11100;SDS011;5604;50.722;7.078;2022-10-22T11:41:05;743.50;;;700.50;;
11100;SDS011;5604;50.722;7.078;2022-10-22T11:43:51;694.03;;;653.27;;
11100;SDS011;5604;50.722;7.078;2022-10-22T11:46:25;715.23;;;674.40;;
11100;SDS011;5604;50.722;7.078;2022-10-22T11:49:00;704.23;;;663.10;;
11100;SDS011;5604;50.722;7.078;2022-10-22T11:51:31;710.57;;;669.93;;
11100;SDS011;5604;50.722;7.078;2022-10-22T11:54:07;729.40;;;685.63;;
11100;SDS011;5604;50.722;7.078;2022-10-22T11:57:14;751.57;;;708.60;;
11100;SDS011;5604;50.722;7.078;2022-10-22T11:59:50;703.10;;;663.33;;
11100;SDS011;5604;50.722;7.078;2022-10-22T12:02:33;738.43;;;696.10;;
11100;SDS011;5604;50.722;7.078;2022-10-22T12:05:33;757.17;;;713.00;;
11100;SDS011;5604;50.722;7.078;2022-10-22T12:08:05;777.87;;;732.40;;
11100;SDS011;5604;50.722;7.078;2022-10-22T12:10:59;696.20;;;657.30;;
11100;SDS011;5604;50.722;7.078;2022-10-22T12:13:31;742.43;;;699.73;;
11100;SDS011;5604;50.722;7.078;2022-10-22T12:19:06;699.83;;;659.97;;
11100;SDS011;5604;50.722;7.078;2022-10-22T12:21:43;712.63;;;672.20;;
11100;SDS011;5604;50.722;7.078;2022-10-22T12:24:14;731.90;;;689.00;;
11100;SDS011;5604;50.722;7.078;2022-10-22T12:26:52;720.53;;;678.40;;
11100;SDS011;5604;50.722;7.078;2022-10-22T12:29:23;681.73;;;643.60;;
11100;SDS011;5604;50.722;7.078;2022-10-22T12:31:52;675.80;;;638.43;;
11100;SDS011;5604;50.722;7.078;2022-10-22T12:37:23;713.63;;;673.63;;
11100;SDS011;5604;50.722;7.078;2022-10-22T12:40:17;733.60;;;691.17;;
11100;SDS011;5604;50.722;7.078;2022-10-22T12:42:49;694.87;;;657.13;;
11100;SDS011;5604;50.722;7.078;2022-10-22T12:45:19;693.30;;;655.53;;
11100;SDS011;5604;50.722;7.078;2022-10-22T12:47:54;722.90;;;682.30;;
11100;SDS011;5604;50.722;7.078;2022-10-22T12:53:44;706.47;;;668.40;;
11100;SDS011;5604;50.722;7.078;2022-10-22T12:56:17;723.17;;;682.03;;
11100;SDS011;5604;50.722;7.078;2022-10-22T12:58:54;724.27;;;684.37;;
11100;SDS011;5604;50.722;7.078;2022-10-22T13:01:27;739.90;;;698.43;;
11100;SDS011;5604;50.722;7.078;2022-10-22T13:04:04;757.17;;;714.50;;
11100;SDS011;5604;50.722;7.078;2022-10-22T13:06:42;694.10;;;656.97;;
11100;SDS011;5604;50.722;7.078;2022-10-22T13:09:19;728.17;;;688.53;;
11100;SDS011;5604;50.722;7.078;2022-10-22T13:12:04;726.33;;;687.50;;
11100;SDS011;5604;50.722;7.078;2022-10-22T13:14:47;717.10;;;678.17;;
11100;SDS011;5604;50.722;7.078;2022-10-22T13:17:16;733.33;;;694.23;;
11100;SDS011;5604;50.722;7.078;2022-10-22T13:20:00;737.13;;;695.13;;
11100;SDS011;5604;50.722;7.078;2022-10-22T13:22:31;727.27;;;687.57;;
11100;SDS011;5604;50.722;7.078;2022-10-22T13:25:16;746.90;;;705.27;;
11100;SDS011;5604;50.722;7.078;2022-10-22T13:27:47;735.43;;;694.10;;
11100;SDS011;5604;50.722;7.078;2022-10-22T13:30:19;741.23;;;700.30;;
11100;SDS011;5604;50.722;7.078;2022-10-22T13:32:49;729.10;;;688.70;;
11100;SDS011;5604;50.722;7.078;2022-10-22T13:35:19;744.83;;;704.73;;
11100;SDS011;5604;50.722;7.078;2022-10-22T13:37:50;737.73;;;696.53;;
11100;SDS011;5604;50.722;7.078;2022-10-22T13:40:18;717.27;;;678.57;;
11100;SDS011;5604;50.722;7.078;2022-10-22T13:42:47;722.97;;;681.93;;
11100;SDS011;5604;50.722;7.078;2022-10-22T13:45:15;738.40;;;697.23;;
11100;SDS011;5604;50.722;7.078;2022-10-22T13:47:47;727.40;;;687.53;;
11100;SDS011;5604;50.722;7.078;2022-10-22T13:50:17;726.47;;;687.57;;
11100;SDS011;5604;50.722;7.078;2022-10-22T13:52:48;736.40;;;694.83;;
11100;SDS011;5604;50.722;7.078;2022-10-22T13:55:32;704.60;;;666.23;;
11100;SDS011;5604;50.722;7.078;2022-10-22T13:58:02;736.93;;;695.93;;
11100;SDS011;5604;50.722;7.078;2022-10-22T14:00:33;723.47;;;683.83;;
11100;SDS011;5604;50.722;7.078;2022-10-22T14:03:03;748.20;;;707.27;;
11100;SDS011;5604;50.722;7.078;2022-10-22T14:05:32;717.23;;;677.40;;
11100;SDS011;5604;50.722;7.078;2022-10-22T14:08:00;731.50;;;691.77;;
11100;SDS011;5604;50.722;7.078;2022-10-22T14:10:28;761.80;;;718.80;;
11100;SDS011;5604;50.722;7.078;2022-10-22T14:12:57;727.30;;;687.37;;
11100;SDS011;5604;50.722;7.078;2022-10-22T14:15:26;723.03;;;682.93;;
11100;SDS011;5604;50.722;7.078;2022-10-22T14:17:56;738.27;;;696.70;;
11100;SDS011;5604;50.722;7.078;2022-10-22T14:20:26;741.03;;;700.97;;
11100;SDS011;5604;50.722;7.078;2022-10-22T14:22:57;747.60;;;706.60;;
11100;SDS011;5604;50.722;7.078;2022-10-22T14:25:29;758.93;;;716.47;;
11100;SDS011;5604;50.722;7.078;2022-10-22T14:27:58;746.07;;;705.33;;
11100;SDS011;5604;50.722;7.078;2022-10-22T14:30:26;701.00;;;662.13;;
11100;SDS011;5604;50.722;7.078;2022-10-22T14:32:55;726.23;;;686.57;;
11100;SDS011;5604;50.722;7.078;2022-10-22T14:35:25;719.23;;;680.30;;
11100;SDS011;5604;50.722;7.078;2022-10-22T14:40:47;724.30;;;685.87;;
11100;SDS011;5604;50.722;7.078;2022-10-22T14:43:24;746.53;;;705.30;;
11100;SDS011;5604;50.722;7.078;2022-10-22T14:45:59;751.90;;;709.17;;
11100;SDS011;5604;50.722;7.078;2022-10-22T14:48:33;742.53;;;700.73;;
11100;SDS011;5604;50.722;7.078;2022-10-22T14:51:05;733.20;;;691.70;;
11100;SDS011;5604;50.722;7.078;2022-10-22T14:53:33;739.17;;;697.87;;